createdAt,value
2023-04-09T00:00:31.148Z,67.33
2023-04-09T00:04:29.095Z,65.25
2023-04-09T00:08:36.857Z,63.86
2023-04-09T00:12:44.842Z,64.61
2023-04-09T00:16:46.763Z,65.53
2023-04-09T00:20:54.929Z,66.30
2023-04-09T00:25:04.142Z,66.84
2023-04-09T00:29:12.985Z,64.34
2023-04-09T00:33:07.629Z,63.26
2023-04-09T00:37:02.515Z,64.42
2023-04-09T00:41:00.671Z,65.63
2023-04-09T00:44:51.404Z,66.41
2023-04-09T00:48:52.091Z,67.27
2023-04-09T00:52:50.308Z,64.87
2023-04-09T00:56:58.542Z,63.93
2023-04-09T01:01:06.830Z,64.71
2023-04-09T01:05:14.982Z,65.65
2023-04-09T01:09:28.948Z,66.54
2023-04-09T01:13:40.132Z,67.56
2023-04-09T01:17:48.322Z,65.46
2023-04-09T01:21:52.150Z,64.88
2023-04-09T01:26:24.720Z,65.05
2023-04-09T01:30:25.744Z,65.81
2023-04-09T01:34:33.827Z,66.72
2023-04-09T01:38:33.327Z,67.90
2023-04-09T01:42:41.023Z,65.47
2023-04-09T01:46:49.152Z,64.17
2023-04-09T01:50:57.324Z,64.11
2023-04-09T01:55:05.497Z,65.39
2023-04-09T01:59:06.404Z,67.79
2023-04-09T02:03:19.465Z,65.86
2023-04-09T02:07:40.031Z,64.91
2023-04-09T02:11:46.642Z,65.41
2023-04-09T02:15:54.786Z,66.24
2023-04-09T02:20:02.978Z,67.82
2023-04-09T02:24:04.301Z,65.17
2023-04-09T02:28:12.541Z,64.83
2023-04-09T02:32:20.694Z,65.93
2023-04-09T02:36:28.768Z,67.19
2023-04-09T02:40:29.683Z,68.30
2023-04-09T02:44:39.843Z,69.52
2023-04-09T02:48:48.947Z,66.83
2023-04-09T02:52:47.014Z,65.75
2023-04-09T02:56:55.231Z,66.26
2023-04-09T03:01:03.359Z,67.57
2023-04-09T03:05:11.472Z,68.46
2023-04-09T03:09:20.619Z,66.25
2023-04-09T03:13:18.862Z,65.70
2023-04-09T03:17:27.184Z,66.02
2023-04-09T03:21:11.630Z,66.43
2023-04-09T03:25:04.552Z,65.45
2023-04-09T03:28:51.956Z,66.83
2023-04-09T03:33:00.348Z,64.80
2023-04-09T03:37:08.495Z,64.33
2023-04-09T03:41:16.305Z,64.88
2023-04-09T03:45:14.231Z,65.97
2023-04-09T03:49:23.435Z,66.71
2023-04-09T03:53:32.662Z,67.91
2023-04-09T03:57:40.796Z,66.08
2023-04-09T04:01:48.929Z,65.28
2023-04-09T04:05:57.132Z,66.01
2023-04-09T04:10:05.237Z,67.26
2023-04-09T04:14:14.420Z,67.89
2023-04-09T04:18:23.623Z,65.66
2023-04-09T04:22:14.416Z,65.16
2023-04-09T04:26:22.566Z,65.71
2023-04-09T04:30:00.571Z,66.40
2023-04-09T04:33:41.511Z,67.62
2023-04-09T04:37:12.903Z,66.42
2023-04-09T04:41:21.042Z,64.19
2023-04-09T04:45:28.999Z,64.98
2023-04-09T04:49:05.858Z,66.60
2023-04-09T04:52:17.754Z,66.28
2023-04-09T04:55:56.695Z,67.61
2023-04-09T04:59:29.180Z,66.96
2023-04-09T05:02:58.921Z,65.35
2023-04-09T05:07:07.436Z,65.91
2023-04-09T05:10:49.155Z,66.24
2023-04-09T05:14:16.056Z,66.62
2023-04-09T05:18:11.543Z,67.14
2023-04-09T05:21:27.619Z,64.47
2023-04-09T05:25:27.053Z,64.08
2023-04-09T05:29:28.155Z,64.54
2023-04-09T05:33:20.152Z,65.51
2023-04-09T05:37:21.870Z,66.43
2023-04-09T05:41:04.397Z,67.14
2023-04-09T05:44:55.519Z,64.60
2023-04-09T05:48:43.699Z,63.41
2023-04-09T05:52:36.132Z,62.99
2023-04-09T05:56:12.658Z,63.14
2023-04-09T06:00:20.751Z,63.71
2023-04-09T06:03:21.654Z,64.74
2023-04-09T06:07:29.911Z,63.03
2023-04-09T06:10:10.386Z,61.55
2023-04-09T06:13:18.863Z,61.49
2023-04-09T06:17:17.759Z,62.15
2023-04-09T06:20:11.232Z,62.30
2023-04-09T06:23:38.254Z,63.24
2023-04-09T06:26:38.799Z,63.98
2023-04-09T06:29:15.228Z,62.14
2023-04-09T06:32:53.805Z,58.38
2023-04-09T06:36:44.340Z,57.43
2023-04-09T06:39:34.699Z,54.34
2023-04-09T06:43:14.938Z,53.05
2023-04-09T06:46:42.022Z,53.33
2023-04-09T06:49:41.238Z,51.75
2023-04-09T06:52:27.511Z,51.46
2023-04-09T06:56:10.078Z,51.18
2023-04-09T06:59:06.463Z,50.84
2023-04-09T07:01:56.609Z,49.81
2023-04-09T07:04:51.306Z,50.24
2023-04-09T07:07:44.323Z,48.03
2023-04-09T07:10:37.867Z,48.17
2023-04-09T07:13:57.809Z,47.58
2023-04-09T07:17:15.485Z,46.87
2023-04-09T07:20:37.693Z,46.48
2023-04-09T07:23:46.414Z,46.13
2023-04-09T07:26:45.621Z,46.09
2023-04-09T07:30:23.867Z,44.68
2023-04-09T07:33:05.585Z,44.85
2023-04-09T07:36:21.101Z,42.83
2023-04-09T07:39:15.845Z,42.10
2023-04-09T07:41:47.410Z,41.97
2023-04-09T07:44:47.343Z,42.07
2023-04-09T07:47:23.279Z,40.44
2023-04-09T07:51:06.315Z,42.97
2023-04-09T07:54:38.175Z,41.22
2023-04-09T07:57:39.678Z,40.32
2023-04-09T08:01:03.890Z,40.09
2023-04-09T08:04:07.488Z,39.55
2023-04-09T08:07:20.627Z,38.80
2023-04-09T08:10:15.080Z,38.43
2023-04-09T08:13:46.158Z,37.82
2023-04-09T08:17:06.562Z,36.02
2023-04-09T08:20:39.248Z,34.91
2023-04-09T08:24:29.043Z,34.97
2023-04-09T08:27:12.220Z,34.75
2023-04-09T08:29:59.464Z,34.32
2023-04-09T08:33:11.562Z,32.48
2023-04-09T08:35:55.703Z,33.77
2023-04-09T08:39:00.895Z,35.60
2023-04-09T08:42:11.709Z,32.73
2023-04-09T08:45:26.969Z,34.25
2023-04-09T08:48:14.678Z,35.10
2023-04-09T08:51:43.906Z,35.40
2023-04-09T08:55:51.976Z,35.27
2023-04-09T08:59:31.734Z,34.30
2023-04-09T09:02:39.790Z,34.81
2023-04-09T09:06:28.887Z,33.61
2023-04-09T09:09:55.472Z,31.52
2023-04-09T09:13:05.036Z,31.25
2023-04-09T09:15:40.554Z,32.12
2023-04-09T09:19:17.678Z,31.78
2023-04-09T09:22:13.445Z,29.83
2023-04-09T09:24:53.709Z,30.32
2023-04-09T09:28:24.338Z,30.12
2023-04-09T09:31:38.179Z,32.30
2023-04-09T09:34:36.916Z,29.39
2023-04-09T09:37:57.696Z,29.55
2023-04-09T09:41:01.912Z,30.35
2023-04-09T09:43:43.109Z,30.29
2023-04-09T09:46:11.785Z,28.35
2023-04-09T09:49:17.004Z,28.35
2023-04-09T09:52:52.708Z,26.47
2023-04-09T09:56:38.390Z,24.43
2023-04-09T09:59:27.131Z,25.88
2023-04-09T10:02:01.572Z,26.53
2023-04-09T10:04:45.792Z,26.72
2023-04-09T10:08:30.393Z,26.66
2023-04-09T10:11:42.792Z,24.77
2023-04-09T10:14:21.077Z,26.40
2023-04-09T10:17:16.078Z,27.15
2023-04-09T10:20:59.987Z,26.89
2023-04-09T10:24:25.439Z,27.11
2023-04-09T10:27:16.207Z,27.35
2023-04-09T10:30:13.312Z,27.83
2023-04-09T10:33:22.563Z,28.42
2023-04-09T10:36:27.889Z,29.01
2023-04-09T10:39:43.320Z,27.44
2023-04-09T10:42:16.172Z,28.71
2023-04-09T10:45:22.465Z,28.20
2023-04-09T10:48:00.421Z,29.28
2023-04-09T10:50:39.566Z,29.23
2023-04-09T10:53:32.687Z,28.22
2023-04-09T10:56:01.485Z,28.70
2023-04-09T10:58:37.527Z,26.86
2023-04-09T11:01:27.397Z,27.21
2023-04-09T11:04:23.618Z,26.90
2023-04-09T11:06:54.509Z,26.69
2023-04-09T11:09:55.337Z,26.85
2023-04-09T11:12:43.096Z,26.98
2023-04-09T11:15:18.489Z,25.31
2023-04-09T11:17:54.352Z,25.23
2023-04-09T11:20:47.536Z,26.08
2023-04-09T11:23:17.817Z,27.42
2023-04-09T11:26:10.040Z,25.72
2023-04-09T11:28:58.384Z,26.92
2023-04-09T11:31:30.410Z,26.94
2023-04-09T11:34:20.692Z,26.61
2023-04-09T11:36:51.495Z,27.13
2023-04-09T11:39:24.956Z,26.60
2023-04-09T11:41:58.644Z,26.68
2023-04-09T11:44:52.394Z,26.56
2023-04-09T11:47:31.881Z,28.75
2023-04-09T11:50:06.308Z,26.52
2023-04-09T11:52:35.837Z,26.98
2023-04-09T11:55:32.367Z,27.40
2023-04-09T11:58:18.477Z,26.31
2023-04-09T12:00:46.154Z,26.15
2023-04-09T12:03:31.036Z,24.94
2023-04-09T12:06:02.760Z,25.50
2023-04-09T12:08:35.530Z,25.66
2023-04-09T12:11:12.637Z,24.76
2023-04-09T12:14:11.394Z,26.16
2023-04-09T12:17:16.128Z,25.85
2023-04-09T12:20:32.368Z,25.64
2023-04-09T12:23:14.517Z,26.88
2023-04-09T12:25:48.272Z,27.52
2023-04-09T12:28:16.859Z,27.77
2023-04-09T12:30:54.099Z,28.37
2023-04-09T12:33:46.576Z,28.46
2023-04-09T12:36:18.258Z,28.75
2023-04-09T12:38:52.180Z,30.02
2023-04-09T12:41:56.340Z,30.12
2023-04-09T12:44:46.892Z,29.73
2023-04-09T12:47:23.006Z,30.18
2023-04-09T12:50:04.905Z,30.96
2023-04-09T12:52:44.359Z,29.24
2023-04-09T12:55:30.642Z,30.57
2023-04-09T12:58:08.726Z,31.21
2023-04-09T13:01:00.406Z,31.29
2023-04-09T13:03:32.396Z,30.06
2023-04-09T13:06:13.059Z,29.90
2023-04-09T13:08:43.245Z,31.70
2023-04-09T13:11:18.526Z,31.63
2023-04-09T13:14:13.482Z,31.30
2023-04-09T13:16:55.269Z,32.23
2023-04-09T13:19:26.905Z,32.40
2023-04-09T13:22:34.357Z,32.74
2023-04-09T13:25:07.121Z,33.10
2023-04-09T13:28:01.049Z,34.26
2023-04-09T13:30:38.694Z,34.41
2023-04-09T13:33:37.161Z,33.05
2023-04-09T13:36:38.937Z,34.19
2023-04-09T13:39:41.096Z,34.08
2023-04-09T13:42:33.157Z,34.01
2023-04-09T13:45:32.255Z,32.89
2023-04-09T13:48:06.554Z,33.43
2023-04-09T13:50:44.211Z,32.55
2023-04-09T13:53:12.161Z,31.98
2023-04-09T13:55:41.233Z,32.02
2023-04-09T13:58:28.730Z,32.21
2023-04-09T14:01:39.489Z,31.63
2023-04-09T14:04:19.436Z,31.31
2023-04-09T14:07:06.698Z,32.41
2023-04-09T14:09:55.087Z,31.67
2023-04-09T14:13:06.612Z,33.13
2023-04-09T14:15:57.479Z,32.51
2023-04-09T14:19:10.426Z,33.31
2023-04-09T14:21:56.825Z,32.86
2023-04-09T14:24:28.929Z,33.63
2023-04-09T14:27:38.641Z,34.03
2023-04-09T14:30:32.354Z,34.61
2023-04-09T14:33:08.106Z,34.36
2023-04-09T14:35:41.084Z,34.71
2023-04-09T14:38:14.908Z,34.25
2023-04-09T14:40:55.443Z,34.42
2023-04-09T14:43:45.572Z,33.89
2023-04-09T14:46:39.712Z,34.27
2023-04-09T14:49:10.848Z,33.38
2023-04-09T14:52:37.023Z,33.18
2023-04-09T14:56:24.601Z,33.68
2023-04-09T14:59:09.729Z,33.38
2023-04-09T15:02:08.376Z,34.11
2023-04-09T15:05:02.141Z,34.39
2023-04-09T15:07:50.547Z,34.71
2023-04-09T15:11:20.032Z,35.25
2023-04-09T15:14:12.285Z,35.54
2023-04-09T15:16:55.887Z,35.63
2023-04-09T15:19:25.979Z,36.08
2023-04-09T15:22:01.723Z,35.58
2023-04-09T15:24:47.652Z,36.17
2023-04-09T15:27:36.756Z,36.25
2023-04-09T15:30:35.310Z,36.82
2023-04-09T15:33:14.680Z,36.47
2023-04-09T15:35:43.929Z,35.56
2023-04-09T15:38:25.230Z,36.10
2023-04-09T15:41:27.021Z,36.41
2023-04-09T15:44:05.146Z,37.19
2023-04-09T15:46:45.870Z,37.63
2023-04-09T15:49:19.618Z,38.47
2023-04-09T15:51:54.176Z,40.83
2023-04-09T15:54:49.673Z,42.48
2023-04-09T15:57:22.182Z,43.16
2023-04-09T15:59:49.778Z,43.78
2023-04-09T16:02:27.179Z,44.37
2023-04-09T16:05:05.286Z,44.95
2023-04-09T16:07:52.260Z,45.45
2023-04-09T16:10:21.993Z,45.36
2023-04-09T16:12:49.960Z,45.47
2023-04-09T16:15:29.278Z,45.71
2023-04-09T16:17:58.089Z,46.04
2023-04-09T16:20:27.005Z,46.18
2023-04-09T16:23:10.741Z,46.54
2023-04-09T16:25:47.724Z,46.71
2023-04-09T16:28:16.608Z,46.66
2023-04-09T16:30:50.089Z,47.11
2023-04-09T16:33:36.967Z,47.48
2023-04-09T16:36:05.262Z,47.74
2023-04-09T16:38:40.024Z,48.39
2023-04-09T16:41:20.037Z,48.70
2023-04-09T16:43:53.077Z,49.51
2023-04-09T16:46:46.105Z,50.08
2023-04-09T16:49:14.145Z,50.19
2023-04-09T16:51:42.239Z,50.45
2023-04-09T16:54:13.048Z,50.92
2023-04-09T16:56:46.086Z,51.02
2023-04-09T16:59:15.565Z,51.92
2023-04-09T17:01:49.099Z,52.92
2023-04-09T17:04:27.020Z,51.73
2023-04-09T17:07:17.705Z,52.70
2023-04-09T17:09:59.201Z,52.47
2023-04-09T17:13:13.772Z,51.80
2023-04-09T17:15:43.342Z,53.56
2023-04-09T17:18:30.291Z,52.54
2023-04-09T17:20:59.434Z,54.97
2023-04-09T17:23:42.811Z,56.71
2023-04-09T17:26:10.392Z,55.27
2023-04-09T17:28:44.471Z,55.43
2023-04-09T17:31:17.762Z,56.27
2023-04-09T17:34:41.685Z,56.97
2023-04-09T17:37:30.972Z,56.74
2023-04-09T17:40:44.316Z,57.03
2023-04-09T17:43:54.723Z,57.90
2023-04-09T17:46:27.131Z,57.72
2023-04-09T17:49:19.361Z,58.71
2023-04-09T17:51:49.790Z,57.97
2023-04-09T17:54:33.625Z,56.42
2023-04-09T17:57:10.960Z,55.63
2023-04-09T17:59:56.968Z,55.95
2023-04-09T18:02:32.990Z,56.36
2023-04-09T18:05:17.815Z,56.68
2023-04-09T18:07:56.859Z,57.09
2023-04-09T18:10:34.271Z,57.67
2023-04-09T18:13:17.659Z,58.04
2023-04-09T18:16:18.187Z,58.33
2023-04-09T18:18:52.364Z,58.59
2023-04-09T18:21:29.790Z,58.69
2023-04-09T18:24:03.781Z,59.69
2023-04-09T18:26:34.935Z,59.08
2023-04-09T18:29:04.579Z,57.45
2023-04-09T18:31:36.488Z,56.60
2023-04-09T18:34:06.788Z,56.95
2023-04-09T18:36:35.573Z,56.95
2023-04-09T18:40:20.354Z,57.51
2023-04-09T18:43:08.803Z,57.46
2023-04-09T18:45:42.847Z,59.13
2023-04-09T18:48:13.290Z,60.36
2023-04-09T18:50:48.469Z,60.60
2023-04-09T18:53:34.214Z,60.28
2023-04-09T18:56:10.022Z,58.82
2023-04-09T18:58:37.262Z,58.54
2023-04-09T19:01:14.379Z,58.84
2023-04-09T19:03:44.881Z,59.70
2023-04-09T19:06:28.009Z,60.35
2023-04-09T19:08:58.365Z,60.78
2023-04-09T19:11:33.635Z,61.25
2023-04-09T19:14:00.719Z,62.33
2023-04-09T19:16:31.596Z,62.24
2023-04-09T19:18:58.853Z,61.07
2023-04-09T19:21:25.963Z,60.67
2023-04-09T19:23:56.277Z,60.69
2023-04-09T19:26:26.636Z,61.24
2023-04-09T19:28:54.289Z,61.78
2023-04-09T19:31:35.642Z,62.61
2023-04-09T19:34:08.264Z,62.94
2023-04-09T19:36:38.316Z,63.58
2023-04-09T19:39:11.021Z,62.50
2023-04-09T19:41:41.560Z,60.72
2023-04-09T19:44:26.044Z,59.45
2023-04-09T19:46:58.070Z,59.61
2023-04-09T19:49:34.655Z,60.37
2023-04-09T19:52:07.156Z,60.64
2023-04-09T19:54:43.404Z,61.13
2023-04-09T19:57:12.827Z,62.08
2023-04-09T20:00:28.667Z,63.41
2023-04-09T20:03:11.345Z,61.83
2023-04-09T20:05:44.069Z,60.36
2023-04-09T20:08:37.088Z,60.13
2023-04-09T20:11:30.634Z,60.21
2023-04-09T20:14:18.109Z,61.16
2023-04-09T20:16:48.903Z,61.80
2023-04-09T20:19:24.245Z,62.29
2023-04-09T20:21:57.126Z,63.20
2023-04-09T20:24:55.533Z,63.33
2023-04-09T20:27:28.406Z,62.21
2023-04-09T20:29:59.693Z,61.84
2023-04-09T20:32:49.006Z,62.11
2023-04-09T20:35:19.416Z,62.70
2023-04-09T20:38:41.605Z,63.56
2023-04-09T20:41:34.138Z,64.90
2023-04-09T20:44:13.120Z,63.83
2023-04-09T20:47:15.539Z,62.11
2023-04-09T20:50:04.464Z,61.93
2023-04-09T20:53:37.052Z,62.61
2023-04-09T20:56:25.498Z,63.30
2023-04-09T21:00:11.664Z,63.87
2023-04-09T21:04:08.980Z,64.97
2023-04-09T21:07:19.734Z,62.98
2023-04-09T21:10:52.749Z,62.12
2023-04-09T21:14:15.418Z,62.91
2023-04-09T21:17:12.132Z,63.75
2023-04-09T21:19:44.757Z,64.21
2023-04-09T21:23:13.736Z,65.46
2023-04-09T21:27:01.727Z,64.23
2023-04-09T21:30:31.331Z,62.76
2023-04-09T21:33:30.225Z,63.27
2023-04-09T21:37:18.360Z,64.11
2023-04-09T21:40:57.263Z,65.02
2023-04-09T21:44:45.670Z,65.99
2023-04-09T21:48:30.629Z,63.87
2023-04-09T21:52:06.513Z,62.85
2023-04-09T21:55:40.667Z,63.26
2023-04-09T21:59:16.522Z,64.42
2023-04-09T22:02:54.013Z,65.08
2023-04-09T22:06:24.274Z,66.46
2023-04-09T22:10:28.311Z,64.33
2023-04-09T22:14:10.057Z,63.83
2023-04-09T22:18:16.746Z,64.40
2023-04-09T22:22:24.891Z,65.46
2023-04-09T22:26:32.982Z,66.48
2023-04-09T22:30:42.673Z,67.23
2023-04-09T22:34:50.751Z,64.56
2023-04-09T22:38:59.896Z,63.85
2023-04-09T22:42:52.688Z,64.90
2023-04-09T22:46:50.423Z,65.86
2023-04-09T22:50:59.313Z,66.89
2023-04-09T22:55:08.566Z,64.39
2023-04-09T22:58:56.459Z,64.10
2023-04-09T23:02:57.625Z,65.07
2023-04-09T23:07:06.899Z,65.94
2023-04-09T23:10:47.233Z,66.91
2023-04-09T23:14:55.028Z,64.28
2023-04-09T23:18:55.840Z,63.99
2023-04-09T23:23:04.329Z,64.85
2023-04-09T23:27:12.524Z,66.01
2023-04-09T23:31:10.866Z,66.80
2023-04-09T23:35:18.974Z,64.25
2023-04-09T23:39:17.581Z,64.62
2023-04-09T23:43:27.804Z,65.45
2023-04-09T23:47:36.790Z,66.35
2023-04-09T23:51:48.053Z,66.91
2023-04-09T23:55:45.291Z,64.56
2023-04-09T23:59:33.474Z,64.04
